createdAt,value
2023-04-16T00:00:28.343Z,10.73
2023-04-16T00:02:55.626Z,10.74
2023-04-16T00:05:22.860Z,10.66
2023-04-16T00:07:51.983Z,10.74
2023-04-16T00:10:19.016Z,10.73
2023-04-16T00:12:45.884Z,10.65
2023-04-16T00:15:12.722Z,10.54
2023-04-16T00:17:39.564Z,10.54
2023-04-16T00:20:08.991Z,10.49
2023-04-16T00:22:35.901Z,10.63
2023-04-16T00:25:04.816Z,10.72
2023-04-16T00:27:31.668Z,10.68
2023-04-16T00:29:58.604Z,10.62
2023-04-16T00:32:25.523Z,10.80
2023-04-16T00:34:52.424Z,10.84
2023-04-16T00:37:19.235Z,10.82
2023-04-16T00:39:46.089Z,10.77
2023-04-16T00:42:14.294Z,10.64
2023-04-16T00:44:41.117Z,10.44
2023-04-16T00:47:08.675Z,10.29
2023-04-16T00:49:36.409Z,9.86
2023-04-16T00:52:03.440Z,10.05
2023-04-16T00:54:31.771Z,10.18
2023-04-16T00:56:59.174Z,10.09
2023-04-16T00:59:27.925Z,10.13
2023-04-16T01:01:54.991Z,10.23
2023-04-16T01:04:21.990Z,10.21
2023-04-16T01:06:48.917Z,10.39
2023-04-16T01:09:15.870Z,10.46
2023-04-16T01:11:42.723Z,10.62
2023-04-16T01:14:09.581Z,10.75
2023-04-16T01:16:37.829Z,10.78
2023-04-16T01:19:04.653Z,10.68
2023-04-16T01:21:33.115Z,10.63
2023-04-16T01:24:02.855Z,10.59
2023-04-16T01:26:29.714Z,10.67
2023-04-16T01:28:56.636Z,10.77
2023-04-16T01:31:23.496Z,10.60
2023-04-16T01:33:50.361Z,10.32
2023-04-16T01:36:17.199Z,10.67
2023-04-16T01:38:45.451Z,10.76
2023-04-16T01:41:12.281Z,10.93
2023-04-16T01:43:40.317Z,10.77
2023-04-16T01:46:15.656Z,10.68
2023-04-16T01:48:43.024Z,10.49
2023-04-16T01:51:10.258Z,10.26
2023-04-16T01:53:37.291Z,10.40
2023-04-16T01:56:06.592Z,10.40
2023-04-16T01:58:34.074Z,10.36
2023-04-16T02:01:01.065Z,10.30
2023-04-16T02:03:28.240Z,10.35
2023-04-16T02:05:55.223Z,10.46
2023-04-16T02:08:22.077Z,10.45
2023-04-16T02:10:50.463Z,10.49
2023-04-16T02:13:18.742Z,10.53
2023-04-16T02:15:46.736Z,10.66
2023-04-16T02:18:13.815Z,10.71
2023-04-16T02:20:41.477Z,10.67
2023-04-16T02:23:08.459Z,10.48
2023-04-16T02:25:39.050Z,10.42
2023-04-16T02:28:05.877Z,10.27
2023-04-16T02:30:34.939Z,10.20
2023-04-16T02:33:03.760Z,10.12
2023-04-16T02:35:30.659Z,10.08
2023-04-16T02:37:57.720Z,10.06
2023-04-16T02:40:24.960Z,10.08
2023-04-16T02:42:51.854Z,10.08
2023-04-16T02:45:19.145Z,10.13
2023-04-16T02:47:47.910Z,10.04
2023-04-16T02:50:14.898Z,10.00
2023-04-16T02:52:41.818Z,10.08
2023-04-16T02:55:10.054Z,9.94
2023-04-16T02:57:36.898Z,9.81
2023-04-16T03:00:07.382Z,10.11
2023-04-16T03:02:34.317Z,10.02
2023-04-16T03:05:02.714Z,10.40
2023-04-16T03:07:29.528Z,10.33
2023-04-16T03:09:56.461Z,10.40
2023-04-16T03:12:23.329Z,10.41
2023-04-16T03:14:53.444Z,10.45
2023-04-16T03:17:20.349Z,10.55
2023-04-16T03:19:47.181Z,10.50
2023-04-16T03:22:15.556Z,10.38
2023-04-16T03:24:42.382Z,10.61
2023-04-16T03:27:09.228Z,10.53
2023-04-16T03:29:37.004Z,10.63
2023-04-16T03:32:04.022Z,10.54
2023-04-16T03:34:31.001Z,10.52
2023-04-16T03:36:58.050Z,10.40
2023-04-16T03:39:26.369Z,10.42
2023-04-16T03:41:53.179Z,10.51
2023-04-16T03:44:20.050Z,10.32
2023-04-16T03:46:46.916Z,10.59
2023-04-16T03:49:13.924Z,10.53
2023-04-16T03:51:40.870Z,10.38
2023-04-16T03:54:07.695Z,10.46
2023-04-16T03:56:35.956Z,10.51
2023-04-16T03:59:02.868Z,10.62
2023-04-16T04:01:29.693Z,10.49
2023-04-16T04:03:56.810Z,10.62
2023-04-16T04:06:23.852Z,10.54
2023-04-16T04:08:50.725Z,10.55
2023-04-16T04:11:17.560Z,10.66
2023-04-16T04:13:46.017Z,10.41
2023-04-16T04:16:12.839Z,10.54
2023-04-16T04:18:39.749Z,10.55
2023-04-16T04:21:07.163Z,10.57
2023-04-16T04:23:34.049Z,10.52
2023-04-16T04:26:03.864Z,10.28
2023-04-16T04:28:31.056Z,10.40
2023-04-16T04:30:59.710Z,10.49
2023-04-16T04:33:26.749Z,10.11
2023-04-16T04:35:53.915Z,10.15
2023-04-16T04:38:22.342Z,10.21
2023-04-16T04:40:49.228Z,10.21
2023-04-16T04:43:16.192Z,10.32
2023-04-16T04:45:43.225Z,10.27
2023-04-16T04:48:11.442Z,10.37
2023-04-16T04:50:38.447Z,10.35
2023-04-16T04:53:09.938Z,10.29
2023-04-16T04:55:37.446Z,10.33
2023-04-16T04:58:04.824Z,10.42
2023-04-16T05:00:31.957Z,10.64
2023-04-16T05:03:01.978Z,10.42
2023-04-16T05:05:30.543Z,10.65
2023-04-16T05:07:57.413Z,10.45
2023-04-16T05:10:24.302Z,10.55
2023-04-16T05:12:51.208Z,10.42
2023-04-16T05:15:18.130Z,10.53
2023-04-16T05:17:45.109Z,10.69
2023-04-16T05:20:12.068Z,10.62
2023-04-16T05:22:40.353Z,10.85
2023-04-16T05:25:07.676Z,10.46
2023-04-16T05:27:34.516Z,10.71
2023-04-16T05:30:01.450Z,10.60
2023-04-16T05:32:28.279Z,10.53
2023-04-16T05:34:55.255Z,10.94
2023-04-16T05:37:22.089Z,10.96
2023-04-16T05:39:50.480Z,10.88
2023-04-16T05:42:17.349Z,10.93
2023-04-16T05:44:44.205Z,11.18
2023-04-16T05:47:11.095Z,11.02
2023-04-16T05:49:38.012Z,11.02
2023-04-16T05:52:05.756Z,10.98
2023-04-16T05:54:32.598Z,11.12
2023-04-16T05:57:01.855Z,11.08
2023-04-16T05:59:29.432Z,11.08
2023-04-16T06:01:56.681Z,10.87
2023-04-16T06:04:23.641Z,11.03
2023-04-16T06:06:50.771Z,11.42
2023-04-16T06:09:18.380Z,11.65
2023-04-16T06:11:45.618Z,11.38
2023-04-16T06:14:13.909Z,11.67
2023-04-16T06:16:40.842Z,11.98
2023-04-16T06:19:07.843Z,11.77
2023-04-16T06:21:34.941Z,11.59
2023-04-16T06:24:01.817Z,11.79
2023-04-16T06:26:28.651Z,11.72
2023-04-16T06:28:55.654Z,11.65
2023-04-16T06:31:24.511Z,11.47
2023-04-16T06:33:51.385Z,11.87
2023-04-16T06:36:18.343Z,11.64
2023-04-16T06:38:45.349Z,11.66
2023-04-16T06:41:14.332Z,11.19
2023-04-16T06:43:41.434Z,11.57
2023-04-16T06:46:08.295Z,11.42
2023-04-16T06:48:36.543Z,11.71
2023-04-16T06:51:04.624Z,12.86
2023-04-16T06:53:31.811Z,13.84
2023-04-16T06:55:58.649Z,14.48
2023-04-16T06:58:25.656Z,14.32
2023-04-16T07:00:52.647Z,14.38
2023-04-16T07:03:19.654Z,13.57
2023-04-16T07:05:47.971Z,12.72
2023-04-16T07:08:14.819Z,12.75
2023-04-16T07:10:41.717Z,13.12
2023-04-16T07:13:08.676Z,12.79
2023-04-16T07:15:35.573Z,12.72
2023-04-16T07:18:02.508Z,12.69
2023-04-16T07:20:29.406Z,13.79
2023-04-16T07:22:59.420Z,13.51
2023-04-16T07:25:26.963Z,13.30
2023-04-16T07:27:53.891Z,13.21
2023-04-16T07:30:20.758Z,13.44
2023-04-16T07:32:47.688Z,13.00
2023-04-16T07:35:15.863Z,12.57
2023-04-16T07:37:42.798Z,12.53
2023-04-16T07:40:12.290Z,13.37
2023-04-16T07:42:39.127Z,12.97
2023-04-16T07:45:07.580Z,13.16
2023-04-16T07:47:34.426Z,13.09
2023-04-16T07:50:01.351Z,13.37
2023-04-16T07:52:28.145Z,14.45
2023-04-16T07:54:54.999Z,15.51
2023-04-16T07:57:23.188Z,14.83
2023-04-16T07:59:50.036Z,16.43
2023-04-16T08:02:17.262Z,17.01
2023-04-16T08:04:44.762Z,16.72
2023-04-16T08:07:11.993Z,16.24
2023-04-16T08:09:47.695Z,16.01
2023-04-16T08:12:14.589Z,17.10
2023-04-16T08:14:42.865Z,16.99
2023-04-16T08:17:10.116Z,16.85
2023-04-16T08:19:36.910Z,16.35
2023-04-16T08:22:04.083Z,16.67
2023-04-16T08:24:31.042Z,16.36
2023-04-16T08:27:08.028Z,17.26
2023-04-16T08:29:43.569Z,15.77
2023-04-16T08:32:10.676Z,16.77
2023-04-16T08:34:37.697Z,16.05
2023-04-16T08:37:04.556Z,15.66
2023-04-16T08:39:31.689Z,15.30
2023-04-16T08:41:59.041Z,15.30
2023-04-16T08:44:28.487Z,15.19
2023-04-16T08:46:59.007Z,15.95
2023-04-16T08:49:26.948Z,16.21
2023-04-16T08:51:55.152Z,16.26
2023-04-16T08:54:32.584Z,16.04
2023-04-16T08:57:00.298Z,16.18
2023-04-16T08:59:28.582Z,16.39
2023-04-16T09:01:58.882Z,14.87
2023-04-16T09:04:28.356Z,14.61
2023-04-16T09:06:59.464Z,15.25
2023-04-16T09:09:27.146Z,14.29
2023-04-16T09:11:54.383Z,14.49
2023-04-16T09:14:22.158Z,15.02
2023-04-16T09:16:49.678Z,16.01
2023-04-16T09:19:18.009Z,15.39
2023-04-16T09:21:47.751Z,14.42
2023-04-16T09:24:14.701Z,14.32
2023-04-16T09:26:43.529Z,14.65
2023-04-16T09:29:10.812Z,14.94
2023-04-16T09:31:37.986Z,14.72
2023-04-16T09:34:06.596Z,13.88
2023-04-16T09:36:35.997Z,14.09
2023-04-16T09:39:04.212Z,14.66
2023-04-16T09:41:33.335Z,15.03
2023-04-16T09:44:01.925Z,15.60
2023-04-16T09:46:31.892Z,14.67
2023-04-16T09:48:58.895Z,14.80
2023-04-16T09:51:26.986Z,15.48
2023-04-16T09:53:57.109Z,15.41
2023-04-16T09:56:26.101Z,16.18
2023-04-16T09:58:58.201Z,15.59
2023-04-16T10:01:25.577Z,16.13
2023-04-16T10:03:57.798Z,16.02
2023-04-16T10:06:27.932Z,16.22
2023-04-16T10:08:59.254Z,16.22
2023-04-16T10:11:26.448Z,16.25
2023-04-16T10:13:53.632Z,15.92
2023-04-16T10:16:22.765Z,15.90
2023-04-16T10:18:49.663Z,15.37
2023-04-16T10:21:16.824Z,15.51
2023-04-16T10:23:44.060Z,15.32
2023-04-16T10:26:12.579Z,15.98
2023-04-16T10:28:39.440Z,15.69
2023-04-16T10:31:09.196Z,15.62
2023-04-16T10:33:40.060Z,16.10
2023-04-16T10:36:11.997Z,16.30
2023-04-16T10:38:40.606Z,16.55
2023-04-16T10:41:09.287Z,17.17
2023-04-16T10:43:42.981Z,16.56
2023-04-16T10:46:23.583Z,16.66
2023-04-16T10:48:53.375Z,16.67
2023-04-16T10:51:29.489Z,16.35
2023-04-16T10:53:57.568Z,16.06
2023-04-16T10:56:25.496Z,15.40
2023-04-16T10:58:57.713Z,15.99
2023-04-16T11:01:32.542Z,15.93
2023-04-16T11:04:02.097Z,16.31
2023-04-16T11:06:29.748Z,16.20
2023-04-16T11:08:56.636Z,15.81
2023-04-16T11:11:23.756Z,15.98
2023-04-16T11:13:57.105Z,16.45
2023-04-16T11:16:25.515Z,16.64
2023-04-16T11:18:53.502Z,16.46
2023-04-16T11:21:22.508Z,15.74
2023-04-16T11:23:50.688Z,16.40
2023-04-16T11:26:25.138Z,16.66
2023-04-16T11:28:52.135Z,16.70
2023-04-16T11:31:20.812Z,16.82
2023-04-16T11:33:47.793Z,16.55
2023-04-16T11:36:14.774Z,16.63
2023-04-16T11:38:43.007Z,16.22
2023-04-16T11:41:11.148Z,16.56
2023-04-16T11:43:38.327Z,16.71
2023-04-16T11:46:20.156Z,16.01
2023-04-16T11:48:56.195Z,16.73
2023-04-16T11:51:23.633Z,16.15
2023-04-16T11:53:53.110Z,16.46
2023-04-16T11:56:28.338Z,16.64
2023-04-16T11:59:13.928Z,16.83
2023-04-16T12:01:45.521Z,16.60
2023-04-16T12:04:14.625Z,16.55
2023-04-16T12:06:41.796Z,17.13
2023-04-16T12:09:24.968Z,16.45
2023-04-16T12:11:51.929Z,16.17
2023-04-16T12:14:19.018Z,15.89
2023-04-16T12:16:45.986Z,16.82
2023-04-16T12:19:14.760Z,16.65
2023-04-16T12:21:43.382Z,16.30
2023-04-16T12:24:15.823Z,17.10
2023-04-16T12:26:44.772Z,16.24
2023-04-16T12:29:16.779Z,16.11
2023-04-16T12:31:44.242Z,16.39
2023-04-16T12:34:11.294Z,16.49
2023-04-16T12:36:39.588Z,16.38
2023-04-16T12:39:07.479Z,16.76
2023-04-16T12:41:36.902Z,16.17
2023-04-16T12:44:06.800Z,16.21
2023-04-16T12:46:33.761Z,16.50
2023-04-16T12:49:00.744Z,16.55
2023-04-16T12:51:28.088Z,16.39
2023-04-16T12:53:56.454Z,17.19
2023-04-16T12:56:23.725Z,16.10
2023-04-16T12:58:52.001Z,15.96
2023-04-16T13:01:19.255Z,16.31
2023-04-16T13:03:46.423Z,16.13
2023-04-16T13:06:14.088Z,16.10
2023-04-16T13:08:41.360Z,16.66
2023-04-16T13:11:09.845Z,15.94
2023-04-16T13:13:36.866Z,16.41
2023-04-16T13:16:06.665Z,16.40
2023-04-16T13:18:33.775Z,16.14
2023-04-16T13:21:00.846Z,16.05
2023-04-16T13:23:27.696Z,16.45
2023-04-16T13:25:54.739Z,16.97
2023-04-16T13:28:23.047Z,17.05
2023-04-16T13:30:50.026Z,16.80
2023-04-16T13:33:17.051Z,17.10
2023-04-16T13:35:43.970Z,16.49
2023-04-16T13:38:10.981Z,16.15
2023-04-16T13:40:37.939Z,15.67
2023-04-16T13:43:05.967Z,15.77
2023-04-16T13:45:38.006Z,15.79
2023-04-16T13:48:05.591Z,15.38
2023-04-16T13:50:32.867Z,15.71
2023-04-16T13:52:59.718Z,16.14
2023-04-16T13:55:26.806Z,16.90
2023-04-16T13:57:53.739Z,16.32
2023-04-16T14:00:20.919Z,16.76
2023-04-16T14:02:49.379Z,15.93
2023-04-16T14:05:16.527Z,15.78
2023-04-16T14:07:43.761Z,16.53
2023-04-16T14:10:11.329Z,16.37
2023-04-16T14:12:39.174Z,15.98
2023-04-16T14:15:07.393Z,16.62
2023-04-16T14:17:34.293Z,16.56
2023-04-16T14:20:02.843Z,14.95
2023-04-16T14:22:29.692Z,16.13
2023-04-16T14:24:56.773Z,15.38
2023-04-16T14:27:23.756Z,15.88
2023-04-16T14:29:50.954Z,15.73
2023-04-16T14:32:17.947Z,15.86
2023-04-16T14:34:44.882Z,15.79
2023-04-16T14:37:13.454Z,16.14
2023-04-16T14:39:40.598Z,16.33
2023-04-16T14:42:07.449Z,16.21
2023-04-16T14:44:34.323Z,16.36
2023-04-16T14:47:01.254Z,16.20
2023-04-16T14:49:28.183Z,16.19
2023-04-16T14:51:56.643Z,16.23
2023-04-16T14:54:25.197Z,15.90
2023-04-16T14:56:52.039Z,15.76
2023-04-16T14:59:18.974Z,16.07
2023-04-16T15:01:47.395Z,15.50
2023-04-16T15:04:14.720Z,15.98
2023-04-16T15:06:41.997Z,16.04
2023-04-16T15:09:09.709Z,15.73
2023-04-16T15:11:38.309Z,15.58
2023-04-16T15:14:05.615Z,15.76
2023-04-16T15:16:32.674Z,15.34
2023-04-16T15:18:59.639Z,15.03
2023-04-16T15:21:27.980Z,15.65
2023-04-16T15:23:54.852Z,15.72
2023-04-16T15:26:23.266Z,15.68
2023-04-16T15:28:51.486Z,15.44
2023-04-16T15:31:20.848Z,15.32
2023-04-16T15:33:48.248Z,15.28
2023-04-16T15:36:15.584Z,15.60
2023-04-16T15:38:42.405Z,15.48
2023-04-16T15:41:09.951Z,15.79
2023-04-16T15:43:37.093Z,15.23
2023-04-16T15:46:05.609Z,15.62
2023-04-16T15:48:32.463Z,15.00
2023-04-16T15:50:59.267Z,14.55
2023-04-16T15:53:29.448Z,14.87
2023-04-16T15:55:56.356Z,14.59
2023-04-16T15:58:23.161Z,14.79
2023-04-16T16:00:53.310Z,14.83
2023-04-16T16:03:22.087Z,14.93
2023-04-16T16:05:49.419Z,14.71
2023-04-16T16:08:16.622Z,14.73
2023-04-16T16:10:43.997Z,14.28
2023-04-16T16:13:13.219Z,14.53
2023-04-16T16:15:41.018Z,14.77
2023-04-16T16:18:07.954Z,14.34
2023-04-16T16:20:36.704Z,14.76
2023-04-16T16:23:04.082Z,14.71
2023-04-16T16:25:30.994Z,14.69
2023-04-16T16:27:58.907Z,14.39
2023-04-16T16:30:26.570Z,14.31
2023-04-16T16:32:53.556Z,14.21
2023-04-16T16:35:20.666Z,14.07
2023-04-16T16:37:48.932Z,14.42
2023-04-16T16:40:16.183Z,14.43
2023-04-16T16:42:43.059Z,14.45
2023-04-16T16:45:11.052Z,14.22
2023-04-16T16:47:38.050Z,14.05
2023-04-16T16:50:05.991Z,13.97
2023-04-16T16:52:32.870Z,14.16
2023-04-16T16:55:01.369Z,14.41
2023-04-16T16:57:28.274Z,14.51
2023-04-16T16:59:55.157Z,14.60
2023-04-16T17:02:22.252Z,14.41
2023-04-16T17:04:49.231Z,13.89
2023-04-16T17:07:16.075Z,14.11
2023-04-16T17:09:42.947Z,14.42
2023-04-16T17:12:11.249Z,14.22
2023-04-16T17:14:38.472Z,14.08
2023-04-16T17:17:05.510Z,14.39
2023-04-16T17:19:32.307Z,14.25
2023-04-16T17:21:59.142Z,14.36
2023-04-16T17:24:26.105Z,14.76
2023-04-16T17:26:53.771Z,14.86
2023-04-16T17:29:25.935Z,14.47
2023-04-16T17:31:53.814Z,14.11
2023-04-16T17:34:21.078Z,14.17
2023-04-16T17:36:48.032Z,13.97
2023-04-16T17:39:14.900Z,13.98
2023-04-16T17:41:41.791Z,14.37
2023-04-16T17:44:11.133Z,13.72
2023-04-16T17:46:40.039Z,14.19
2023-04-16T17:49:06.935Z,13.81
2023-04-16T17:51:33.823Z,13.97
2023-04-16T17:54:00.680Z,13.96
2023-04-16T17:56:27.466Z,14.06
2023-04-16T17:58:54.267Z,13.68
2023-04-16T18:01:21.190Z,13.77
2023-04-16T18:03:49.799Z,13.93
2023-04-16T18:06:16.968Z,13.59
2023-04-16T18:08:43.752Z,13.70
2023-04-16T18:11:10.762Z,13.51
2023-04-16T18:13:37.633Z,13.01
2023-04-16T18:16:04.594Z,13.23
2023-04-16T18:18:31.449Z,13.01
2023-04-16T18:20:59.823Z,13.35
2023-04-16T18:23:27.311Z,13.27
2023-04-16T18:25:54.559Z,12.83
2023-04-16T18:28:21.592Z,13.16
2023-04-16T18:35:46.348Z,13.11
2023-04-16T18:38:14.690Z,13.04
2023-04-16T18:40:42.262Z,13.16
2023-04-16T18:43:09.453Z,13.11
2023-04-16T18:45:37.079Z,12.83
2023-04-16T18:48:04.264Z,13.00
2023-04-16T18:50:31.207Z,13.10
2023-04-16T18:52:58.154Z,12.93
2023-04-16T18:55:26.502Z,12.98
2023-04-16T18:57:53.375Z,12.38
2023-04-16T19:00:20.527Z,12.74
2023-04-16T19:02:47.469Z,12.83
2023-04-16T19:05:14.380Z,12.38
2023-04-16T19:07:41.856Z,12.68
2023-04-16T19:10:09.500Z,12.69
2023-04-16T19:12:37.772Z,12.71
2023-04-16T19:15:05.097Z,12.49
2023-04-16T19:17:31.996Z,12.56
2023-04-16T19:19:59.174Z,12.30
2023-04-16T19:22:26.234Z,12.57
2023-04-16T19:24:54.657Z,12.10
2023-04-16T19:27:21.470Z,12.26
2023-04-16T19:29:49.640Z,12.00
2023-04-16T19:32:16.544Z,12.04
2023-04-16T19:34:43.432Z,11.65
2023-04-16T19:37:10.401Z,11.50
2023-04-16T19:39:37.291Z,12.04
2023-04-16T19:42:04.208Z,12.06
2023-04-16T19:44:32.388Z,12.19
2023-04-16T19:47:00.646Z,11.98
2023-04-16T19:49:27.516Z,11.50
2023-04-16T19:51:55.326Z,11.65
2023-04-16T19:54:22.179Z,11.74
2023-04-16T19:56:49.419Z,11.99
2023-04-16T19:59:16.399Z,12.02
2023-04-16T20:01:43.407Z,12.17
2023-04-16T20:04:12.193Z,12.34
2023-04-16T20:06:39.074Z,12.34
2023-04-16T20:09:06.169Z,12.30
2023-04-16T20:11:34.620Z,12.23
2023-04-16T20:14:01.794Z,12.18
2023-04-16T20:16:28.657Z,12.39
2023-04-16T20:18:55.576Z,11.69
2023-04-16T20:21:25.062Z,11.91
2023-04-16T20:23:51.933Z,11.45
2023-04-16T20:26:18.940Z,12.20
2023-04-16T20:28:45.793Z,11.77
2023-04-16T20:31:12.976Z,11.80
2023-04-16T20:33:39.903Z,11.74
2023-04-16T20:36:07.572Z,12.11
2023-04-16T20:38:37.445Z,11.98
2023-04-16T20:41:10.117Z,11.82
2023-04-16T20:43:41.365Z,12.02
2023-04-16T20:46:08.969Z,11.82
2023-04-16T20:48:36.019Z,12.08
2023-04-16T20:51:04.653Z,12.07
2023-04-16T20:53:32.778Z,12.10
2023-04-16T20:56:01.083Z,11.76
2023-04-16T20:58:28.059Z,11.85
2023-04-16T21:00:57.402Z,11.62
2023-04-16T21:03:24.743Z,11.89
2023-04-16T21:05:55.891Z,11.57
2023-04-16T21:08:23.495Z,11.71
2023-04-16T21:10:50.707Z,11.72
2023-04-16T21:13:20.763Z,11.95
2023-04-16T21:15:47.687Z,11.79
2023-04-16T21:18:14.731Z,12.02
2023-04-16T21:20:41.554Z,12.10
2023-04-16T21:23:08.447Z,12.03
2023-04-16T21:25:35.426Z,11.85
2023-04-16T21:28:02.336Z,11.99
2023-04-16T21:30:30.595Z,11.99
2023-04-16T21:32:57.516Z,11.98
2023-04-16T21:35:24.461Z,12.04
2023-04-16T21:37:51.386Z,11.78
2023-04-16T21:40:18.248Z,12.00
2023-04-16T21:42:45.376Z,11.99
2023-04-16T21:45:12.373Z,12.13
2023-04-16T21:47:40.897Z,12.18
2023-04-16T21:50:08.772Z,12.05
2023-04-16T21:52:40.459Z,12.13
2023-04-16T21:55:09.544Z,12.17
2023-04-16T21:57:36.369Z,12.17
2023-04-16T22:00:08.393Z,12.19
2023-04-16T22:02:35.375Z,12.15
2023-04-16T22:05:03.999Z,12.11
2023-04-16T22:07:30.871Z,11.94
2023-04-16T22:09:57.684Z,12.07
2023-04-16T22:12:24.505Z,12.15
2023-04-16T22:17:23.688Z,12.02
2023-04-16T22:19:50.918Z,12.05
2023-04-16T22:22:20.637Z,12.09
2023-04-16T22:24:48.823Z,12.01
2023-04-16T22:27:15.882Z,11.72
2023-04-16T22:29:42.939Z,11.25
2023-04-16T22:32:09.858Z,11.59
2023-04-16T22:34:36.865Z,11.56
2023-04-16T22:37:03.696Z,11.03
2023-04-16T22:39:32.116Z,11.43
2023-04-16T22:41:59.054Z,11.36
2023-04-16T22:44:25.886Z,11.46
2023-04-16T22:46:52.749Z,11.56
2023-04-16T22:49:20.346Z,11.50
2023-04-16T22:51:47.182Z,11.75
2023-04-16T22:54:14.125Z,11.07
2023-04-16T22:56:42.484Z,10.95
2023-04-16T22:59:09.480Z,11.33
2023-04-16T23:01:36.711Z,11.75
2023-04-16T23:04:03.683Z,11.86
2023-04-16T23:06:31.511Z,11.64
2023-04-16T23:08:58.416Z,11.70
2023-04-16T23:11:25.412Z,11.77
2023-04-16T23:13:53.670Z,11.35
2023-04-16T23:16:20.681Z,11.14
2023-04-16T23:18:47.674Z,11.50
2023-04-16T23:21:14.551Z,11.55
2023-04-16T23:23:41.487Z,11.47
2023-04-16T23:26:08.302Z,11.28
2023-04-16T23:28:35.234Z,11.65
2023-04-16T23:31:05.281Z,11.85
2023-04-16T23:33:33.561Z,11.75
2023-04-16T23:36:00.555Z,11.77
2023-04-16T23:38:27.465Z,11.67
2023-04-16T23:40:54.350Z,11.57
2023-04-16T23:43:21.195Z,11.83
2023-04-16T23:45:48.055Z,11.78
2023-04-16T23:48:16.308Z,11.24
2023-04-16T23:50:43.155Z,11.67
2023-04-16T23:53:10.014Z,11.66
2023-04-16T23:55:36.867Z,11.18
2023-04-16T23:58:03.695Z,10.95
